<?xml version="1.0" encoding="UTF-8" standalone="no" ?>
<gpx xmlns="http://www.topografix.com/GPX/1/1" xmlns:xsi="http://www.w3.org/2001/XMLSchema-instance" xsi:schemaLocation="http://www.topografix.com/GPX/1/1 http://www.topografix.com/GPX/1/1/gpx.xsd" version="1.1" creator="VisuGPX - https://www.visugpx.com">
  <metadata>
    <name>Thoys - Armaille5</name>
    <desc><![CDATA[Ain - Bugey.
Boucle au départ de Thoys.
Passage vers le lac d'Armaille, crêtes de La Craz.]]></desc>
  </metadata>
  <trk>
    <name><![CDATA[8212448-Thoys_Armaille5]]></name>
    <trkseg>
      <trkpt lat="45.74272" lon="5.65486">
        <ele>232</ele>
        <time>2017-12-26T18:52:05Z</time>
      </trkpt>
      <trkpt lat="45.74262" lon="5.65469">
        <ele>232</ele>
        <time>2017-12-26T18:53:05Z</time>
      </trkpt>
      <trkpt lat="45.74264" lon="5.65406">
        <ele>233</ele>
        <time>2017-12-26T18:54:05Z</time>
      </trkpt>
      <trkpt lat="45.74267" lon="5.65352">
        <ele>234</ele>
        <time>2017-12-26T18:55:05Z</time>
      </trkpt>
      <trkpt lat="45.74267" lon="5.653">
        <ele>234</ele>
        <time>2017-12-26T18:56:05Z</time>
      </trkpt>
      <trkpt lat="45.74267" lon="5.65255">
        <ele>235</ele>
        <time>2017-12-26T18:57:05Z</time>
      </trkpt>
      <trkpt lat="45.7427" lon="5.65212">
        <ele>235</ele>
        <time>2017-12-26T18:58:05Z</time>
      </trkpt>
      <trkpt lat="45.74273" lon="5.65175">
        <ele>235</ele>
        <time>2017-12-26T18:59:05Z</time>
      </trkpt>
      <trkpt lat="45.7427" lon="5.65144">
        <ele>236</ele>
        <time>2017-12-26T19:00:05Z</time>
      </trkpt>
      <trkpt lat="45.7427" lon="5.65119">
        <ele>238</ele>
        <time>2017-12-26T19:01:05Z</time>
      </trkpt>
      <trkpt lat="45.74269" lon="5.65102">
        <ele>239</ele>
        <time>2017-12-26T19:02:05Z</time>
      </trkpt>
      <trkpt lat="45.74267" lon="5.65073">
        <ele>243</ele>
        <time>2017-12-26T19:03:05Z</time>
      </trkpt>
      <trkpt lat="45.74263" lon="5.6505">
        <ele>249</ele>
        <time>2017-12-26T19:04:05Z</time>
      </trkpt>
      <trkpt lat="45.74257" lon="5.65037">
        <ele>252</ele>
        <time>2017-12-26T19:05:05Z</time>
      </trkpt>
      <trkpt lat="45.74231" lon="5.65016">
        <ele>257</ele>
        <time>2017-12-26T19:06:05Z</time>
      </trkpt>
      <trkpt lat="45.74215" lon="5.65001">
        <ele>260</ele>
        <time>2017-12-26T19:07:05Z</time>
      </trkpt>
      <trkpt lat="45.742" lon="5.64991">
        <ele>261</ele>
        <time>2017-12-26T19:08:05Z</time>
      </trkpt>
      <trkpt lat="45.7424" lon="5.64983">
        <ele>264</ele>
        <time>2017-12-26T19:09:05Z</time>
      </trkpt>
      <trkpt lat="45.74279" lon="5.64982">
        <ele>263</ele>
        <time>2017-12-26T19:10:05Z</time>
      </trkpt>
      <trkpt lat="45.74291" lon="5.64975">
        <ele>263</ele>
        <time>2017-12-26T19:11:05Z</time>
      </trkpt>
      <trkpt lat="45.74295" lon="5.6495">
        <ele>267</ele>
        <time>2017-12-26T19:12:05Z</time>
      </trkpt>
      <trkpt lat="45.74297" lon="5.64935">
        <ele>269</ele>
        <time>2017-12-26T19:13:05Z</time>
      </trkpt>
      <trkpt lat="45.74307" lon="5.64918">
        <ele>272</ele>
        <time>2017-12-26T19:14:05Z</time>
      </trkpt>
      <trkpt lat="45.74324" lon="5.64902">
        <ele>275</ele>
        <time>2017-12-26T19:15:05Z</time>
      </trkpt>
      <trkpt lat="45.74348" lon="5.64862">
        <ele>282</ele>
        <time>2017-12-26T19:16:05Z</time>
      </trkpt>
      <trkpt lat="45.74371" lon="5.64812">
        <ele>286</ele>
        <time>2017-12-26T19:17:05Z</time>
      </trkpt>
      <trkpt lat="45.74385" lon="5.64794">
        <ele>287</ele>
        <time>2017-12-26T19:18:05Z</time>
      </trkpt>
      <trkpt lat="45.74397" lon="5.64781">
        <ele>286</ele>
        <time>2017-12-26T19:19:05Z</time>
      </trkpt>
      <trkpt lat="45.74402" lon="5.64769">
        <ele>287</ele>
        <time>2017-12-26T19:20:05Z</time>
      </trkpt>
      <trkpt lat="45.74412" lon="5.64744">
        <ele>287</ele>
        <time>2017-12-26T19:21:05Z</time>
      </trkpt>
      <trkpt lat="45.74416" lon="5.64722">
        <ele>288</ele>
        <time>2017-12-26T19:22:05Z</time>
      </trkpt>
      <trkpt lat="45.74417" lon="5.64674">
        <ele>293</ele>
        <time>2017-12-26T19:23:05Z</time>
      </trkpt>
      <trkpt lat="45.74422" lon="5.64645">
        <ele>297</ele>
        <time>2017-12-26T19:24:05Z</time>
      </trkpt>
      <trkpt lat="45.74425" lon="5.64613">
        <ele>301</ele>
        <time>2017-12-26T19:25:05Z</time>
      </trkpt>
      <trkpt lat="45.74425" lon="5.6458">
        <ele>302</ele>
        <time>2017-12-26T19:26:05Z</time>
      </trkpt>
      <trkpt lat="45.74423" lon="5.64533">
        <ele>298</ele>
        <time>2017-12-26T19:27:05Z</time>
      </trkpt>
      <trkpt lat="45.74429" lon="5.6447">
        <ele>297</ele>
        <time>2017-12-26T19:28:05Z</time>
      </trkpt>
      <trkpt lat="45.74447" lon="5.64448">
        <ele>300</ele>
        <time>2017-12-26T19:29:05Z</time>
      </trkpt>
      <trkpt lat="45.74474" lon="5.6443">
        <ele>303</ele>
        <time>2017-12-26T19:30:05Z</time>
      </trkpt>
      <trkpt lat="45.74499" lon="5.64421">
        <ele>305</ele>
        <time>2017-12-26T19:31:05Z</time>
      </trkpt>
      <trkpt lat="45.74519" lon="5.64413">
        <ele>306</ele>
        <time>2017-12-26T19:32:05Z</time>
      </trkpt>
      <trkpt lat="45.74541" lon="5.64405">
        <ele>309</ele>
        <time>2017-12-26T19:33:05Z</time>
      </trkpt>
      <trkpt lat="45.74567" lon="5.64404">
        <ele>312</ele>
        <time>2017-12-26T19:34:05Z</time>
      </trkpt>
      <trkpt lat="45.74593" lon="5.64403">
        <ele>314</ele>
        <time>2017-12-26T19:35:05Z</time>
      </trkpt>
      <trkpt lat="45.74625" lon="5.644">
        <ele>317</ele>
        <time>2017-12-26T19:36:05Z</time>
      </trkpt>
      <trkpt lat="45.74653" lon="5.64392">
        <ele>319</ele>
        <time>2017-12-26T19:37:05Z</time>
      </trkpt>
      <trkpt lat="45.74693" lon="5.6439">
        <ele>324</ele>
        <time>2017-12-26T19:38:05Z</time>
      </trkpt>
      <trkpt lat="45.74743" lon="5.64375">
        <ele>329</ele>
        <time>2017-12-26T19:39:05Z</time>
      </trkpt>
      <trkpt lat="45.74778" lon="5.64365">
        <ele>329</ele>
        <time>2017-12-26T19:40:05Z</time>
      </trkpt>
      <trkpt lat="45.74814" lon="5.64358">
        <ele>329</ele>
        <time>2017-12-26T19:41:05Z</time>
      </trkpt>
      <trkpt lat="45.74858" lon="5.64357">
        <ele>328</ele>
        <time>2017-12-26T19:42:05Z</time>
      </trkpt>
      <trkpt lat="45.74881" lon="5.64366">
        <ele>331</ele>
        <time>2017-12-26T19:43:05Z</time>
      </trkpt>
      <trkpt lat="45.74924" lon="5.64368">
        <ele>331</ele>
        <time>2017-12-26T19:44:05Z</time>
      </trkpt>
      <trkpt lat="45.7496" lon="5.64359">
        <ele>329</ele>
        <time>2017-12-26T19:45:05Z</time>
      </trkpt>
      <trkpt lat="45.74999" lon="5.64352">
        <ele>328</ele>
        <time>2017-12-26T19:46:05Z</time>
      </trkpt>
      <trkpt lat="45.75047" lon="5.64346">
        <ele>328</ele>
        <time>2017-12-26T19:47:05Z</time>
      </trkpt>
      <trkpt lat="45.75091" lon="5.64345">
        <ele>329</ele>
        <time>2017-12-26T19:48:05Z</time>
      </trkpt>
      <trkpt lat="45.7512" lon="5.64341">
        <ele>328</ele>
        <time>2017-12-26T19:49:05Z</time>
      </trkpt>
      <trkpt lat="45.75159" lon="5.64341">
        <ele>328</ele>
        <time>2017-12-26T19:50:05Z</time>
      </trkpt>
      <trkpt lat="45.75185" lon="5.64348">
        <ele>329</ele>
        <time>2017-12-26T19:51:05Z</time>
      </trkpt>
      <trkpt lat="45.75209" lon="5.64355">
        <ele>330</ele>
        <time>2017-12-26T19:52:05Z</time>
      </trkpt>
      <trkpt lat="45.75233" lon="5.64362">
        <ele>330</ele>
        <time>2017-12-26T19:53:05Z</time>
      </trkpt>
      <trkpt lat="45.75251" lon="5.64366">
        <ele>330</ele>
        <time>2017-12-26T19:54:05Z</time>
      </trkpt>
      <trkpt lat="45.75272" lon="5.6437">
        <ele>332</ele>
        <time>2017-12-26T19:55:05Z</time>
      </trkpt>
      <trkpt lat="45.75293" lon="5.64369">
        <ele>332</ele>
        <time>2017-12-26T19:56:05Z</time>
      </trkpt>
      <trkpt lat="45.75313" lon="5.64364">
        <ele>331</ele>
        <time>2017-12-26T19:57:05Z</time>
      </trkpt>
      <trkpt lat="45.75329" lon="5.6436">
        <ele>331</ele>
        <time>2017-12-26T19:58:05Z</time>
      </trkpt>
      <trkpt lat="45.75357" lon="5.64364">
        <ele>333</ele>
        <time>2017-12-26T19:59:05Z</time>
      </trkpt>
      <trkpt lat="45.75379" lon="5.64356">
        <ele>331</ele>
        <time>2017-12-26T20:00:05Z</time>
      </trkpt>
      <trkpt lat="45.75396" lon="5.64348">
        <ele>329</ele>
        <time>2017-12-26T20:01:05Z</time>
      </trkpt>
      <trkpt lat="45.75413" lon="5.64344">
        <ele>329</ele>
        <time>2017-12-26T20:02:05Z</time>
      </trkpt>
      <trkpt lat="45.75432" lon="5.64343">
        <ele>329</ele>
        <time>2017-12-26T20:03:05Z</time>
      </trkpt>
      <trkpt lat="45.75453" lon="5.64339">
        <ele>329</ele>
        <time>2017-12-26T20:04:05Z</time>
      </trkpt>
      <trkpt lat="45.7548" lon="5.64336">
        <ele>329</ele>
        <time>2017-12-26T20:05:05Z</time>
      </trkpt>
      <trkpt lat="45.75496" lon="5.64342">
        <ele>330</ele>
        <time>2017-12-26T20:06:05Z</time>
      </trkpt>
      <trkpt lat="45.75516" lon="5.64342">
        <ele>330</ele>
        <time>2017-12-26T20:07:05Z</time>
      </trkpt>
      <trkpt lat="45.75548" lon="5.64351">
        <ele>330</ele>
        <time>2017-12-26T20:08:05Z</time>
      </trkpt>
      <trkpt lat="45.75582" lon="5.64353">
        <ele>329</ele>
        <time>2017-12-26T20:09:05Z</time>
      </trkpt>
      <trkpt lat="45.75598" lon="5.64371">
        <ele>333</ele>
        <time>2017-12-26T20:10:05Z</time>
      </trkpt>
      <trkpt lat="45.75613" lon="5.64365">
        <ele>332</ele>
        <time>2017-12-26T20:11:05Z</time>
      </trkpt>
      <trkpt lat="45.75644" lon="5.6437">
        <ele>333</ele>
        <time>2017-12-26T20:12:05Z</time>
      </trkpt>
      <trkpt lat="45.75665" lon="5.64378">
        <ele>334</ele>
        <time>2017-12-26T20:13:05Z</time>
      </trkpt>
      <trkpt lat="45.75675" lon="5.64368">
        <ele>333</ele>
        <time>2017-12-26T20:14:05Z</time>
      </trkpt>
      <trkpt lat="45.75673" lon="5.64355">
        <ele>330</ele>
        <time>2017-12-26T20:15:05Z</time>
      </trkpt>
      <trkpt lat="45.75661" lon="5.64348">
        <ele>329</ele>
        <time>2017-12-26T20:16:05Z</time>
      </trkpt>
      <trkpt lat="45.7565" lon="5.64337">
        <ele>326</ele>
        <time>2017-12-26T20:17:05Z</time>
      </trkpt>
      <trkpt lat="45.75632" lon="5.64328">
        <ele>326</ele>
        <time>2017-12-26T20:18:05Z</time>
      </trkpt>
      <trkpt lat="45.75616" lon="5.64315">
        <ele>328</ele>
        <time>2017-12-26T20:19:05Z</time>
      </trkpt>
      <trkpt lat="45.75597" lon="5.64304">
        <ele>329</ele>
        <time>2017-12-26T20:20:05Z</time>
      </trkpt>
      <trkpt lat="45.75582" lon="5.64301">
        <ele>329</ele>
        <time>2017-12-26T20:21:05Z</time>
      </trkpt>
      <trkpt lat="45.75567" lon="5.64304">
        <ele>329</ele>
        <time>2017-12-26T20:22:05Z</time>
      </trkpt>
      <trkpt lat="45.75552" lon="5.64306">
        <ele>329</ele>
        <time>2017-12-26T20:23:05Z</time>
      </trkpt>
      <trkpt lat="45.75537" lon="5.64302">
        <ele>330</ele>
        <time>2017-12-26T20:24:05Z</time>
      </trkpt>
      <trkpt lat="45.75523" lon="5.64294">
        <ele>330</ele>
        <time>2017-12-26T20:25:05Z</time>
      </trkpt>
      <trkpt lat="45.75506" lon="5.64289">
        <ele>331</ele>
        <time>2017-12-26T20:26:05Z</time>
      </trkpt>
      <trkpt lat="45.75492" lon="5.64285">
        <ele>331</ele>
        <time>2017-12-26T20:27:05Z</time>
      </trkpt>
      <trkpt lat="45.7548" lon="5.64282">
        <ele>331</ele>
        <time>2017-12-26T20:28:05Z</time>
      </trkpt>
      <trkpt lat="45.75469" lon="5.64283">
        <ele>331</ele>
        <time>2017-12-26T20:29:05Z</time>
      </trkpt>
      <trkpt lat="45.75456" lon="5.64287">
        <ele>330</ele>
        <time>2017-12-26T20:30:05Z</time>
      </trkpt>
      <trkpt lat="45.75441" lon="5.64286">
        <ele>330</ele>
        <time>2017-12-26T20:31:05Z</time>
      </trkpt>
      <trkpt lat="45.75423" lon="5.64281">
        <ele>330</ele>
        <time>2017-12-26T20:32:05Z</time>
      </trkpt>
      <trkpt lat="45.75405" lon="5.64274">
        <ele>330</ele>
        <time>2017-12-26T20:33:05Z</time>
      </trkpt>
      <trkpt lat="45.75389" lon="5.64265">
        <ele>332</ele>
        <time>2017-12-26T20:34:05Z</time>
      </trkpt>
      <trkpt lat="45.7538" lon="5.64252">
        <ele>333</ele>
        <time>2017-12-26T20:35:05Z</time>
      </trkpt>
      <trkpt lat="45.75378" lon="5.64228">
        <ele>338</ele>
        <time>2017-12-26T20:36:05Z</time>
      </trkpt>
      <trkpt lat="45.75341" lon="5.64217">
        <ele>341</ele>
        <time>2017-12-26T20:37:05Z</time>
      </trkpt>
      <trkpt lat="45.75296" lon="5.64179">
        <ele>349</ele>
        <time>2017-12-26T20:38:05Z</time>
      </trkpt>
      <trkpt lat="45.75271" lon="5.64165">
        <ele>351</ele>
        <time>2017-12-26T20:39:05Z</time>
      </trkpt>
      <trkpt lat="45.75234" lon="5.64141">
        <ele>354</ele>
        <time>2017-12-26T20:40:05Z</time>
      </trkpt>
      <trkpt lat="45.75262" lon="5.64125">
        <ele>357</ele>
        <time>2017-12-26T20:41:05Z</time>
      </trkpt>
      <trkpt lat="45.75292" lon="5.64108">
        <ele>360</ele>
        <time>2017-12-26T20:42:05Z</time>
      </trkpt>
      <trkpt lat="45.75314" lon="5.641">
        <ele>361</ele>
        <time>2017-12-26T20:43:05Z</time>
      </trkpt>
      <trkpt lat="45.75352" lon="5.64104">
        <ele>360</ele>
        <time>2017-12-26T20:44:05Z</time>
      </trkpt>
      <trkpt lat="45.75385" lon="5.64096">
        <ele>361</ele>
        <time>2017-12-26T20:45:05Z</time>
      </trkpt>
      <trkpt lat="45.75403" lon="5.6409">
        <ele>361</ele>
        <time>2017-12-26T20:46:05Z</time>
      </trkpt>
      <trkpt lat="45.75419" lon="5.64078">
        <ele>362</ele>
        <time>2017-12-26T20:47:05Z</time>
      </trkpt>
      <trkpt lat="45.75433" lon="5.64062">
        <ele>361</ele>
        <time>2017-12-26T20:48:05Z</time>
      </trkpt>
      <trkpt lat="45.75442" lon="5.64051">
        <ele>360</ele>
        <time>2017-12-26T20:49:05Z</time>
      </trkpt>
      <trkpt lat="45.75472" lon="5.6406">
        <ele>361</ele>
        <time>2017-12-26T20:50:05Z</time>
      </trkpt>
      <trkpt lat="45.75497" lon="5.64047">
        <ele>362</ele>
        <time>2017-12-26T20:51:05Z</time>
      </trkpt>
      <trkpt lat="45.75525" lon="5.64046">
        <ele>365</ele>
        <time>2017-12-26T20:52:05Z</time>
      </trkpt>
      <trkpt lat="45.7554" lon="5.64054">
        <ele>367</ele>
        <time>2017-12-26T20:53:05Z</time>
      </trkpt>
      <trkpt lat="45.75553" lon="5.64068">
        <ele>368</ele>
        <time>2017-12-26T20:54:05Z</time>
      </trkpt>
      <trkpt lat="45.75569" lon="5.64074">
        <ele>370</ele>
        <time>2017-12-26T20:55:05Z</time>
      </trkpt>
      <trkpt lat="45.75567" lon="5.64055">
        <ele>370</ele>
        <time>2017-12-26T20:56:05Z</time>
      </trkpt>
      <trkpt lat="45.75572" lon="5.64035">
        <ele>371</ele>
        <time>2017-12-26T20:57:05Z</time>
      </trkpt>
      <trkpt lat="45.7558" lon="5.64027">
        <ele>372</ele>
        <time>2017-12-26T20:58:05Z</time>
      </trkpt>
      <trkpt lat="45.75595" lon="5.64023">
        <ele>374</ele>
        <time>2017-12-26T20:59:05Z</time>
      </trkpt>
      <trkpt lat="45.75606" lon="5.6402">
        <ele>375</ele>
        <time>2017-12-26T21:00:05Z</time>
      </trkpt>
      <trkpt lat="45.75623" lon="5.64019">
        <ele>377</ele>
        <time>2017-12-26T21:01:05Z</time>
      </trkpt>
      <trkpt lat="45.75634" lon="5.64018">
        <ele>378</ele>
        <time>2017-12-26T21:02:05Z</time>
      </trkpt>
      <trkpt lat="45.75646" lon="5.64018">
        <ele>379</ele>
        <time>2017-12-26T21:03:05Z</time>
      </trkpt>
      <trkpt lat="45.75674" lon="5.64029">
        <ele>381</ele>
        <time>2017-12-26T21:04:05Z</time>
      </trkpt>
      <trkpt lat="45.75693" lon="5.64029">
        <ele>380</ele>
        <time>2017-12-26T21:05:05Z</time>
      </trkpt>
      <trkpt lat="45.75717" lon="5.64021">
        <ele>379</ele>
        <time>2017-12-26T21:06:05Z</time>
      </trkpt>
      <trkpt lat="45.75728" lon="5.64012">
        <ele>378</ele>
        <time>2017-12-26T21:07:05Z</time>
      </trkpt>
      <trkpt lat="45.75752" lon="5.64">
        <ele>377</ele>
        <time>2017-12-26T21:08:05Z</time>
      </trkpt>
      <trkpt lat="45.75765" lon="5.64">
        <ele>376</ele>
        <time>2017-12-26T21:09:05Z</time>
      </trkpt>
      <trkpt lat="45.75775" lon="5.63996">
        <ele>375</ele>
        <time>2017-12-26T21:10:05Z</time>
      </trkpt>
      <trkpt lat="45.75785" lon="5.63994">
        <ele>374</ele>
        <time>2017-12-26T21:11:05Z</time>
      </trkpt>
      <trkpt lat="45.75812" lon="5.63997">
        <ele>373</ele>
        <time>2017-12-26T21:12:05Z</time>
      </trkpt>
      <trkpt lat="45.75833" lon="5.64003">
        <ele>373</ele>
        <time>2017-12-26T21:13:05Z</time>
      </trkpt>
      <trkpt lat="45.75847" lon="5.64004">
        <ele>374</ele>
        <time>2017-12-26T21:14:05Z</time>
      </trkpt>
      <trkpt lat="45.75863" lon="5.64003">
        <ele>374</ele>
        <time>2017-12-26T21:15:05Z</time>
      </trkpt>
      <trkpt lat="45.7588" lon="5.63995">
        <ele>374</ele>
        <time>2017-12-26T21:16:05Z</time>
      </trkpt>
      <trkpt lat="45.75895" lon="5.63976">
        <ele>371</ele>
        <time>2017-12-26T21:17:05Z</time>
      </trkpt>
      <trkpt lat="45.75921" lon="5.63973">
        <ele>371</ele>
        <time>2017-12-26T21:18:05Z</time>
      </trkpt>
      <trkpt lat="45.75939" lon="5.63965">
        <ele>370</ele>
        <time>2017-12-26T21:19:05Z</time>
      </trkpt>
      <trkpt lat="45.75965" lon="5.63967">
        <ele>371</ele>
        <time>2017-12-26T21:20:05Z</time>
      </trkpt>
      <trkpt lat="45.75999" lon="5.63966">
        <ele>372</ele>
        <time>2017-12-26T21:21:05Z</time>
      </trkpt>
      <trkpt lat="45.76" lon="5.63947">
        <ele>370</ele>
        <time>2017-12-26T21:22:05Z</time>
      </trkpt>
      <trkpt lat="45.75995" lon="5.63909">
        <ele>365</ele>
        <time>2017-12-26T21:23:05Z</time>
      </trkpt>
      <trkpt lat="45.75965" lon="5.639">
        <ele>361</ele>
        <time>2017-12-26T21:24:05Z</time>
      </trkpt>
      <trkpt lat="45.75943" lon="5.63893">
        <ele>358</ele>
        <time>2017-12-26T21:25:05Z</time>
      </trkpt>
      <trkpt lat="45.75936" lon="5.63893">
        <ele>357</ele>
        <time>2017-12-26T21:26:05Z</time>
      </trkpt>
      <trkpt lat="45.75915" lon="5.63899">
        <ele>357</ele>
        <time>2017-12-26T21:27:05Z</time>
      </trkpt>
      <trkpt lat="45.75899" lon="5.639">
        <ele>357</ele>
        <time>2017-12-26T21:28:05Z</time>
      </trkpt>
      <trkpt lat="45.75874" lon="5.639">
        <ele>356</ele>
        <time>2017-12-26T21:29:05Z</time>
      </trkpt>
      <trkpt lat="45.75852" lon="5.63901">
        <ele>356</ele>
        <time>2017-12-26T21:30:05Z</time>
      </trkpt>
      <trkpt lat="45.75833" lon="5.63901">
        <ele>356</ele>
        <time>2017-12-26T21:31:05Z</time>
      </trkpt>
      <trkpt lat="45.75816" lon="5.63901">
        <ele>356</ele>
        <time>2017-12-26T21:32:05Z</time>
      </trkpt>
      <trkpt lat="45.75795" lon="5.63864">
        <ele>350</ele>
        <time>2017-12-26T21:33:05Z</time>
      </trkpt>
      <trkpt lat="45.7578" lon="5.63875">
        <ele>352</ele>
        <time>2017-12-26T21:34:05Z</time>
      </trkpt>
      <trkpt lat="45.75766" lon="5.63883">
        <ele>353</ele>
        <time>2017-12-26T21:35:05Z</time>
      </trkpt>
      <trkpt lat="45.75751" lon="5.63885">
        <ele>353</ele>
        <time>2017-12-26T21:36:05Z</time>
      </trkpt>
      <trkpt lat="45.75736" lon="5.63882">
        <ele>354</ele>
        <time>2017-12-26T21:37:05Z</time>
      </trkpt>
      <trkpt lat="45.75721" lon="5.63879">
        <ele>354</ele>
        <time>2017-12-26T21:38:05Z</time>
      </trkpt>
      <trkpt lat="45.757" lon="5.63873">
        <ele>355</ele>
        <time>2017-12-26T21:39:05Z</time>
      </trkpt>
      <trkpt lat="45.7568" lon="5.63866">
        <ele>355</ele>
        <time>2017-12-26T21:40:05Z</time>
      </trkpt>
      <trkpt lat="45.75664" lon="5.63833">
        <ele>349</ele>
        <time>2017-12-26T21:41:05Z</time>
      </trkpt>
      <trkpt lat="45.75657" lon="5.63818">
        <ele>348</ele>
        <time>2017-12-26T21:42:05Z</time>
      </trkpt>
      <trkpt lat="45.75649" lon="5.63801">
        <ele>348</ele>
        <time>2017-12-26T21:43:05Z</time>
      </trkpt>
      <trkpt lat="45.7564" lon="5.63786">
        <ele>348</ele>
        <time>2017-12-26T21:44:05Z</time>
      </trkpt>
      <trkpt lat="45.75621" lon="5.6377">
        <ele>348</ele>
        <time>2017-12-26T21:45:05Z</time>
      </trkpt>
      <trkpt lat="45.75605" lon="5.63755">
        <ele>349</ele>
        <time>2017-12-26T21:46:05Z</time>
      </trkpt>
      <trkpt lat="45.75579" lon="5.63753">
        <ele>350</ele>
        <time>2017-12-26T21:47:05Z</time>
      </trkpt>
      <trkpt lat="45.75565" lon="5.63724">
        <ele>353</ele>
        <time>2017-12-26T21:48:05Z</time>
      </trkpt>
      <trkpt lat="45.75577" lon="5.63706">
        <ele>354</ele>
        <time>2017-12-26T21:49:05Z</time>
      </trkpt>
      <trkpt lat="45.75594" lon="5.63682">
        <ele>355</ele>
        <time>2017-12-26T21:50:05Z</time>
      </trkpt>
      <trkpt lat="45.75612" lon="5.63655">
        <ele>355</ele>
        <time>2017-12-26T21:51:05Z</time>
      </trkpt>
      <trkpt lat="45.75624" lon="5.63636">
        <ele>356</ele>
        <time>2017-12-26T21:52:05Z</time>
      </trkpt>
      <trkpt lat="45.75639" lon="5.63622">
        <ele>355</ele>
        <time>2017-12-26T21:53:05Z</time>
      </trkpt>
      <trkpt lat="45.75662" lon="5.63608">
        <ele>352</ele>
        <time>2017-12-26T21:54:05Z</time>
      </trkpt>
      <trkpt lat="45.75683" lon="5.63601">
        <ele>352</ele>
        <time>2017-12-26T21:55:05Z</time>
      </trkpt>
      <trkpt lat="45.75706" lon="5.63594">
        <ele>352</ele>
        <time>2017-12-26T21:56:05Z</time>
      </trkpt>
      <trkpt lat="45.75734" lon="5.63587">
        <ele>351</ele>
        <time>2017-12-26T21:57:05Z</time>
      </trkpt>
      <trkpt lat="45.75771" lon="5.63581">
        <ele>352</ele>
        <time>2017-12-26T21:58:05Z</time>
      </trkpt>
      <trkpt lat="45.75804" lon="5.63577">
        <ele>352</ele>
        <time>2017-12-26T21:59:05Z</time>
      </trkpt>
      <trkpt lat="45.75833" lon="5.63571">
        <ele>353</ele>
        <time>2017-12-26T22:00:05Z</time>
      </trkpt>
      <trkpt lat="45.75853" lon="5.63563">
        <ele>352</ele>
        <time>2017-12-26T22:01:05Z</time>
      </trkpt>
      <trkpt lat="45.75877" lon="5.6355">
        <ele>351</ele>
        <time>2017-12-26T22:02:05Z</time>
      </trkpt>
      <trkpt lat="45.7591" lon="5.63533">
        <ele>350</ele>
        <time>2017-12-26T22:03:05Z</time>
      </trkpt>
      <trkpt lat="45.75937" lon="5.63522">
        <ele>349</ele>
        <time>2017-12-26T22:04:05Z</time>
      </trkpt>
      <trkpt lat="45.75961" lon="5.63512">
        <ele>348</ele>
        <time>2017-12-26T22:05:05Z</time>
      </trkpt>
      <trkpt lat="45.75978" lon="5.63502">
        <ele>347</ele>
        <time>2017-12-26T22:06:05Z</time>
      </trkpt>
      <trkpt lat="45.75997" lon="5.63486">
        <ele>346</ele>
        <time>2017-12-26T22:07:05Z</time>
      </trkpt>
      <trkpt lat="45.7601" lon="5.63471">
        <ele>346</ele>
        <time>2017-12-26T22:08:05Z</time>
      </trkpt>
      <trkpt lat="45.7602" lon="5.63451">
        <ele>346</ele>
        <time>2017-12-26T22:09:05Z</time>
      </trkpt>
      <trkpt lat="45.76029" lon="5.63436">
        <ele>345</ele>
        <time>2017-12-26T22:10:05Z</time>
      </trkpt>
      <trkpt lat="45.76041" lon="5.63419">
        <ele>345</ele>
        <time>2017-12-26T22:11:05Z</time>
      </trkpt>
      <trkpt lat="45.76058" lon="5.63403">
        <ele>345</ele>
        <time>2017-12-26T22:12:05Z</time>
      </trkpt>
      <trkpt lat="45.76076" lon="5.63389">
        <ele>345</ele>
        <time>2017-12-26T22:13:05Z</time>
      </trkpt>
      <trkpt lat="45.76094" lon="5.63375">
        <ele>345</ele>
        <time>2017-12-26T22:14:05Z</time>
      </trkpt>
      <trkpt lat="45.76113" lon="5.63367">
        <ele>345</ele>
        <time>2017-12-26T22:15:05Z</time>
      </trkpt>
      <trkpt lat="45.76139" lon="5.63359">
        <ele>345</ele>
        <time>2017-12-26T22:16:05Z</time>
      </trkpt>
      <trkpt lat="45.7616" lon="5.6336">
        <ele>346</ele>
        <time>2017-12-26T22:17:05Z</time>
      </trkpt>
      <trkpt lat="45.7618" lon="5.6336">
        <ele>345</ele>
        <time>2017-12-26T22:18:05Z</time>
      </trkpt>
      <trkpt lat="45.76184" lon="5.63329">
        <ele>348</ele>
        <time>2017-12-26T22:19:05Z</time>
      </trkpt>
      <trkpt lat="45.76186" lon="5.63295">
        <ele>353</ele>
        <time>2017-12-26T22:20:05Z</time>
      </trkpt>
      <trkpt lat="45.762" lon="5.6329">
        <ele>353</ele>
        <time>2017-12-26T22:21:05Z</time>
      </trkpt>
      <trkpt lat="45.76213" lon="5.63283">
        <ele>354</ele>
        <time>2017-12-26T22:22:05Z</time>
      </trkpt>
      <trkpt lat="45.76231" lon="5.63271">
        <ele>355</ele>
        <time>2017-12-26T22:23:05Z</time>
      </trkpt>
      <trkpt lat="45.76251" lon="5.63259">
        <ele>357</ele>
        <time>2017-12-26T22:24:05Z</time>
      </trkpt>
      <trkpt lat="45.76266" lon="5.63251">
        <ele>356</ele>
        <time>2017-12-26T22:25:05Z</time>
      </trkpt>
      <trkpt lat="45.76283" lon="5.63247">
        <ele>355</ele>
        <time>2017-12-26T22:26:05Z</time>
      </trkpt>
      <trkpt lat="45.76305" lon="5.63245">
        <ele>353</ele>
        <time>2017-12-26T22:27:05Z</time>
      </trkpt>
      <trkpt lat="45.76328" lon="5.63242">
        <ele>351</ele>
        <time>2017-12-26T22:28:05Z</time>
      </trkpt>
      <trkpt lat="45.76338" lon="5.63236">
        <ele>351</ele>
        <time>2017-12-26T22:29:05Z</time>
      </trkpt>
      <trkpt lat="45.76358" lon="5.63216">
        <ele>354</ele>
        <time>2017-12-26T22:30:05Z</time>
      </trkpt>
      <trkpt lat="45.76352" lon="5.63196">
        <ele>355</ele>
        <time>2017-12-26T22:31:05Z</time>
      </trkpt>
      <trkpt lat="45.76346" lon="5.63182">
        <ele>357</ele>
        <time>2017-12-26T22:32:05Z</time>
      </trkpt>
      <trkpt lat="45.76338" lon="5.63171">
        <ele>358</ele>
        <time>2017-12-26T22:33:05Z</time>
      </trkpt>
      <trkpt lat="45.76331" lon="5.6316">
        <ele>358</ele>
        <time>2017-12-26T22:34:05Z</time>
      </trkpt>
      <trkpt lat="45.7632" lon="5.63149">
        <ele>358</ele>
        <time>2017-12-26T22:35:05Z</time>
      </trkpt>
      <trkpt lat="45.7631" lon="5.63138">
        <ele>358</ele>
        <time>2017-12-26T22:36:05Z</time>
      </trkpt>
      <trkpt lat="45.76305" lon="5.63129">
        <ele>358</ele>
        <time>2017-12-26T22:37:05Z</time>
      </trkpt>
      <trkpt lat="45.76291" lon="5.6312">
        <ele>357</ele>
        <time>2017-12-26T22:38:05Z</time>
      </trkpt>
      <trkpt lat="45.76277" lon="5.63121">
        <ele>358</ele>
        <time>2017-12-26T22:39:05Z</time>
      </trkpt>
      <trkpt lat="45.76261" lon="5.63122">
        <ele>358</ele>
        <time>2017-12-26T22:40:05Z</time>
      </trkpt>
      <trkpt lat="45.76245" lon="5.63123">
        <ele>359</ele>
        <time>2017-12-26T22:41:05Z</time>
      </trkpt>
      <trkpt lat="45.76234" lon="5.63128">
        <ele>360</ele>
        <time>2017-12-26T22:42:05Z</time>
      </trkpt>
      <trkpt lat="45.76221" lon="5.63128">
        <ele>360</ele>
        <time>2017-12-26T22:43:05Z</time>
      </trkpt>
      <trkpt lat="45.76209" lon="5.63131">
        <ele>361</ele>
        <time>2017-12-26T22:44:05Z</time>
      </trkpt>
      <trkpt lat="45.7619" lon="5.63127">
        <ele>361</ele>
        <time>2017-12-26T22:45:05Z</time>
      </trkpt>
      <trkpt lat="45.76174" lon="5.63132">
        <ele>362</ele>
        <time>2017-12-26T22:46:05Z</time>
      </trkpt>
      <trkpt lat="45.76163" lon="5.63138">
        <ele>363</ele>
        <time>2017-12-26T22:47:05Z</time>
      </trkpt>
      <trkpt lat="45.76152" lon="5.63142">
        <ele>364</ele>
        <time>2017-12-26T22:48:05Z</time>
      </trkpt>
      <trkpt lat="45.76143" lon="5.63142">
        <ele>365</ele>
        <time>2017-12-26T22:49:05Z</time>
      </trkpt>
      <trkpt lat="45.76133" lon="5.63141">
        <ele>366</ele>
        <time>2017-12-26T22:50:05Z</time>
      </trkpt>
      <trkpt lat="45.76122" lon="5.63135">
        <ele>367</ele>
        <time>2017-12-26T22:51:05Z</time>
      </trkpt>
      <trkpt lat="45.76112" lon="5.63125">
        <ele>368</ele>
        <time>2017-12-26T22:52:05Z</time>
      </trkpt>
      <trkpt lat="45.761" lon="5.63115">
        <ele>370</ele>
        <time>2017-12-26T22:53:05Z</time>
      </trkpt>
      <trkpt lat="45.76087" lon="5.63102">
        <ele>373</ele>
        <time>2017-12-26T22:54:05Z</time>
      </trkpt>
      <trkpt lat="45.76076" lon="5.63092">
        <ele>374</ele>
        <time>2017-12-26T22:55:05Z</time>
      </trkpt>
      <trkpt lat="45.76064" lon="5.63083">
        <ele>376</ele>
        <time>2017-12-26T22:56:05Z</time>
      </trkpt>
      <trkpt lat="45.76053" lon="5.63075">
        <ele>376</ele>
        <time>2017-12-26T22:57:05Z</time>
      </trkpt>
      <trkpt lat="45.76037" lon="5.63068">
        <ele>377</ele>
        <time>2017-12-26T22:58:05Z</time>
      </trkpt>
      <trkpt lat="45.76043" lon="5.63055">
        <ele>376</ele>
        <time>2017-12-26T22:59:05Z</time>
      </trkpt>
      <trkpt lat="45.76058" lon="5.63048">
        <ele>374</ele>
        <time>2017-12-26T23:00:05Z</time>
      </trkpt>
      <trkpt lat="45.76073" lon="5.6304">
        <ele>372</ele>
        <time>2017-12-26T23:01:05Z</time>
      </trkpt>
      <trkpt lat="45.76087" lon="5.63031">
        <ele>369</ele>
        <time>2017-12-26T23:02:05Z</time>
      </trkpt>
      <trkpt lat="45.76105" lon="5.63028">
        <ele>365</ele>
        <time>2017-12-26T23:03:05Z</time>
      </trkpt>
      <trkpt lat="45.76115" lon="5.63022">
        <ele>362</ele>
        <time>2017-12-26T23:04:05Z</time>
      </trkpt>
      <trkpt lat="45.7612" lon="5.63014">
        <ele>360</ele>
        <time>2017-12-26T23:05:05Z</time>
      </trkpt>
      <trkpt lat="45.7613" lon="5.63009">
        <ele>358</ele>
        <time>2017-12-26T23:06:05Z</time>
      </trkpt>
      <trkpt lat="45.76141" lon="5.63013">
        <ele>356</ele>
        <time>2017-12-26T23:07:05Z</time>
      </trkpt>
      <trkpt lat="45.76154" lon="5.63017">
        <ele>354</ele>
        <time>2017-12-26T23:08:05Z</time>
      </trkpt>
      <trkpt lat="45.76166" lon="5.63025">
        <ele>352</ele>
        <time>2017-12-26T23:09:05Z</time>
      </trkpt>
      <trkpt lat="45.76166" lon="5.63013">
        <ele>351</ele>
        <time>2017-12-26T23:10:05Z</time>
      </trkpt>
      <trkpt lat="45.76164" lon="5.62996">
        <ele>351</ele>
        <time>2017-12-26T23:11:05Z</time>
      </trkpt>
      <trkpt lat="45.76162" lon="5.62975">
        <ele>352</ele>
        <time>2017-12-26T23:12:05Z</time>
      </trkpt>
      <trkpt lat="45.76165" lon="5.62958">
        <ele>352</ele>
        <time>2017-12-26T23:13:05Z</time>
      </trkpt>
      <trkpt lat="45.76175" lon="5.6293">
        <ele>352</ele>
        <time>2017-12-26T23:14:05Z</time>
      </trkpt>
      <trkpt lat="45.76191" lon="5.62915">
        <ele>352</ele>
        <time>2017-12-26T23:15:05Z</time>
      </trkpt>
      <trkpt lat="45.76205" lon="5.62899">
        <ele>352</ele>
        <time>2017-12-26T23:16:05Z</time>
      </trkpt>
      <trkpt lat="45.76223" lon="5.62887">
        <ele>352</ele>
        <time>2017-12-26T23:17:05Z</time>
      </trkpt>
      <trkpt lat="45.76237" lon="5.62881">
        <ele>351</ele>
        <time>2017-12-26T23:18:05Z</time>
      </trkpt>
      <trkpt lat="45.76251" lon="5.62878">
        <ele>351</ele>
        <time>2017-12-26T23:19:05Z</time>
      </trkpt>
      <trkpt lat="45.76259" lon="5.62871">
        <ele>351</ele>
        <time>2017-12-26T23:20:05Z</time>
      </trkpt>
      <trkpt lat="45.7626" lon="5.62851">
        <ele>351</ele>
        <time>2017-12-26T23:21:05Z</time>
      </trkpt>
      <trkpt lat="45.76258" lon="5.62829">
        <ele>351</ele>
        <time>2017-12-26T23:22:05Z</time>
      </trkpt>
      <trkpt lat="45.76254" lon="5.62791">
        <ele>350</ele>
        <time>2017-12-26T23:23:05Z</time>
      </trkpt>
      <trkpt lat="45.76246" lon="5.6279">
        <ele>351</ele>
        <time>2017-12-26T23:24:05Z</time>
      </trkpt>
      <trkpt lat="45.76222" lon="5.62774">
        <ele>352</ele>
        <time>2017-12-26T23:25:05Z</time>
      </trkpt>
      <trkpt lat="45.7621" lon="5.62769">
        <ele>353</ele>
        <time>2017-12-26T23:26:05Z</time>
      </trkpt>
      <trkpt lat="45.76183" lon="5.62753">
        <ele>355</ele>
        <time>2017-12-26T23:27:05Z</time>
      </trkpt>
      <trkpt lat="45.76176" lon="5.62742">
        <ele>355</ele>
        <time>2017-12-26T23:28:05Z</time>
      </trkpt>
      <trkpt lat="45.76173" lon="5.62731">
        <ele>355</ele>
        <time>2017-12-26T23:29:05Z</time>
      </trkpt>
      <trkpt lat="45.76171" lon="5.62711">
        <ele>353</ele>
        <time>2017-12-26T23:30:05Z</time>
      </trkpt>
      <trkpt lat="45.76168" lon="5.627">
        <ele>352</ele>
        <time>2017-12-26T23:31:05Z</time>
      </trkpt>
      <trkpt lat="45.76164" lon="5.62689">
        <ele>351</ele>
        <time>2017-12-26T23:32:05Z</time>
      </trkpt>
      <trkpt lat="45.76155" lon="5.6268">
        <ele>351</ele>
        <time>2017-12-26T23:33:05Z</time>
      </trkpt>
      <trkpt lat="45.76132" lon="5.6266">
        <ele>352</ele>
        <time>2017-12-26T23:34:05Z</time>
      </trkpt>
      <trkpt lat="45.76113" lon="5.62647">
        <ele>354</ele>
        <time>2017-12-26T23:35:05Z</time>
      </trkpt>
      <trkpt lat="45.76103" lon="5.62641">
        <ele>354</ele>
        <time>2017-12-26T23:36:05Z</time>
      </trkpt>
      <trkpt lat="45.76092" lon="5.62628">
        <ele>354</ele>
        <time>2017-12-26T23:37:05Z</time>
      </trkpt>
      <trkpt lat="45.76084" lon="5.62615">
        <ele>354</ele>
        <time>2017-12-26T23:38:05Z</time>
      </trkpt>
      <trkpt lat="45.76075" lon="5.62607">
        <ele>354</ele>
        <time>2017-12-26T23:39:05Z</time>
      </trkpt>
      <trkpt lat="45.7605" lon="5.6259">
        <ele>354</ele>
        <time>2017-12-26T23:40:05Z</time>
      </trkpt>
      <trkpt lat="45.76034" lon="5.62576">
        <ele>354</ele>
        <time>2017-12-26T23:41:05Z</time>
      </trkpt>
      <trkpt lat="45.76023" lon="5.62571">
        <ele>355</ele>
        <time>2017-12-26T23:42:05Z</time>
      </trkpt>
      <trkpt lat="45.76011" lon="5.62569">
        <ele>355</ele>
        <time>2017-12-26T23:43:05Z</time>
      </trkpt>
      <trkpt lat="45.75993" lon="5.62565">
        <ele>356</ele>
        <time>2017-12-26T23:44:05Z</time>
      </trkpt>
      <trkpt lat="45.75971" lon="5.62561">
        <ele>357</ele>
        <time>2017-12-26T23:45:05Z</time>
      </trkpt>
      <trkpt lat="45.75954" lon="5.62561">
        <ele>357</ele>
        <time>2017-12-26T23:46:05Z</time>
      </trkpt>
      <trkpt lat="45.75941" lon="5.62564">
        <ele>359</ele>
        <time>2017-12-26T23:47:05Z</time>
      </trkpt>
      <trkpt lat="45.75932" lon="5.62569">
        <ele>360</ele>
        <time>2017-12-26T23:48:05Z</time>
      </trkpt>
      <trkpt lat="45.75921" lon="5.62578">
        <ele>363</ele>
        <time>2017-12-26T23:49:05Z</time>
      </trkpt>
      <trkpt lat="45.75913" lon="5.62583">
        <ele>364</ele>
        <time>2017-12-26T23:50:05Z</time>
      </trkpt>
      <trkpt lat="45.75902" lon="5.62579">
        <ele>364</ele>
        <time>2017-12-26T23:51:05Z</time>
      </trkpt>
      <trkpt lat="45.75892" lon="5.62577">
        <ele>364</ele>
        <time>2017-12-26T23:52:05Z</time>
      </trkpt>
      <trkpt lat="45.75869" lon="5.6257">
        <ele>364</ele>
        <time>2017-12-26T23:53:05Z</time>
      </trkpt>
      <trkpt lat="45.75839" lon="5.62563">
        <ele>364</ele>
        <time>2017-12-26T23:54:05Z</time>
      </trkpt>
      <trkpt lat="45.75814" lon="5.62557">
        <ele>365</ele>
        <time>2017-12-26T23:55:05Z</time>
      </trkpt>
      <trkpt lat="45.75795" lon="5.62555">
        <ele>365</ele>
        <time>2017-12-26T23:56:05Z</time>
      </trkpt>
      <trkpt lat="45.75773" lon="5.62557">
        <ele>366</ele>
        <time>2017-12-26T23:57:05Z</time>
      </trkpt>
      <trkpt lat="45.75753" lon="5.6256">
        <ele>367</ele>
        <time>2017-12-26T23:58:05Z</time>
      </trkpt>
      <trkpt lat="45.7574" lon="5.62563">
        <ele>366</ele>
        <time>2017-12-26T23:59:05Z</time>
      </trkpt>
      <trkpt lat="45.75713" lon="5.62581">
        <ele>365</ele>
        <time>2017-12-27T00:00:05Z</time>
      </trkpt>
      <trkpt lat="45.75695" lon="5.62592">
        <ele>365</ele>
        <time>2017-12-27T00:01:05Z</time>
      </trkpt>
      <trkpt lat="45.75663" lon="5.62607">
        <ele>365</ele>
        <time>2017-12-27T00:02:05Z</time>
      </trkpt>
      <trkpt lat="45.75651" lon="5.62616">
        <ele>367</ele>
        <time>2017-12-27T00:03:05Z</time>
      </trkpt>
      <trkpt lat="45.75633" lon="5.62623">
        <ele>368</ele>
        <time>2017-12-27T00:04:05Z</time>
      </trkpt>
      <trkpt lat="45.75604" lon="5.62632">
        <ele>370</ele>
        <time>2017-12-27T00:05:05Z</time>
      </trkpt>
      <trkpt lat="45.75575" lon="5.62639">
        <ele>372</ele>
        <time>2017-12-27T00:06:05Z</time>
      </trkpt>
      <trkpt lat="45.75555" lon="5.62644">
        <ele>375</ele>
        <time>2017-12-27T00:07:05Z</time>
      </trkpt>
      <trkpt lat="45.75532" lon="5.62645">
        <ele>378</ele>
        <time>2017-12-27T00:08:05Z</time>
      </trkpt>
      <trkpt lat="45.75506" lon="5.6264">
        <ele>380</ele>
        <time>2017-12-27T00:09:05Z</time>
      </trkpt>
      <trkpt lat="45.75481" lon="5.62641">
        <ele>380</ele>
        <time>2017-12-27T00:10:05Z</time>
      </trkpt>
      <trkpt lat="45.75466" lon="5.62647">
        <ele>380</ele>
        <time>2017-12-27T00:11:05Z</time>
      </trkpt>
      <trkpt lat="45.75445" lon="5.62661">
        <ele>379</ele>
        <time>2017-12-27T00:12:05Z</time>
      </trkpt>
      <trkpt lat="45.7542" lon="5.62679">
        <ele>381</ele>
        <time>2017-12-27T00:13:05Z</time>
      </trkpt>
      <trkpt lat="45.75405" lon="5.62627">
        <ele>377</ele>
        <time>2017-12-27T00:14:05Z</time>
      </trkpt>
      <trkpt lat="45.754" lon="5.62598">
        <ele>377</ele>
        <time>2017-12-27T00:15:05Z</time>
      </trkpt>
      <trkpt lat="45.75362" lon="5.626">
        <ele>378</ele>
        <time>2017-12-27T00:16:05Z</time>
      </trkpt>
      <trkpt lat="45.75331" lon="5.62592">
        <ele>380</ele>
        <time>2017-12-27T00:17:05Z</time>
      </trkpt>
      <trkpt lat="45.75307" lon="5.62584">
        <ele>381</ele>
        <time>2017-12-27T00:18:05Z</time>
      </trkpt>
      <trkpt lat="45.75278" lon="5.62577">
        <ele>380</ele>
        <time>2017-12-27T00:19:05Z</time>
      </trkpt>
      <trkpt lat="45.7524" lon="5.62553">
        <ele>380</ele>
        <time>2017-12-27T00:20:05Z</time>
      </trkpt>
      <trkpt lat="45.75195" lon="5.62549">
        <ele>379</ele>
        <time>2017-12-27T00:21:05Z</time>
      </trkpt>
      <trkpt lat="45.7515" lon="5.62559">
        <ele>379</ele>
        <time>2017-12-27T00:22:05Z</time>
      </trkpt>
      <trkpt lat="45.75114" lon="5.62559">
        <ele>379</ele>
        <time>2017-12-27T00:23:05Z</time>
      </trkpt>
      <trkpt lat="45.75065" lon="5.6256">
        <ele>379</ele>
        <time>2017-12-27T00:24:05Z</time>
      </trkpt>
      <trkpt lat="45.75043" lon="5.62527">
        <ele>377</ele>
        <time>2017-12-27T00:25:05Z</time>
      </trkpt>
      <trkpt lat="45.7502" lon="5.62531">
        <ele>377</ele>
        <time>2017-12-27T00:26:05Z</time>
      </trkpt>
      <trkpt lat="45.74994" lon="5.62537">
        <ele>377</ele>
        <time>2017-12-27T00:27:05Z</time>
      </trkpt>
      <trkpt lat="45.74966" lon="5.62542">
        <ele>378</ele>
        <time>2017-12-27T00:28:05Z</time>
      </trkpt>
      <trkpt lat="45.74927" lon="5.62551">
        <ele>379</ele>
        <time>2017-12-27T00:29:05Z</time>
      </trkpt>
      <trkpt lat="45.74897" lon="5.62551">
        <ele>377</ele>
        <time>2017-12-27T00:30:05Z</time>
      </trkpt>
      <trkpt lat="45.74868" lon="5.62551">
        <ele>375</ele>
        <time>2017-12-27T00:31:05Z</time>
      </trkpt>
      <trkpt lat="45.74863" lon="5.62543">
        <ele>375</ele>
        <time>2017-12-27T00:32:05Z</time>
      </trkpt>
      <trkpt lat="45.74856" lon="5.62531">
        <ele>374</ele>
        <time>2017-12-27T00:33:05Z</time>
      </trkpt>
      <trkpt lat="45.7485" lon="5.62524">
        <ele>374</ele>
        <time>2017-12-27T00:34:05Z</time>
      </trkpt>
      <trkpt lat="45.74839" lon="5.62521">
        <ele>374</ele>
        <time>2017-12-27T00:35:05Z</time>
      </trkpt>
      <trkpt lat="45.74821" lon="5.62526">
        <ele>374</ele>
        <time>2017-12-27T00:36:05Z</time>
      </trkpt>
      <trkpt lat="45.74806" lon="5.62533">
        <ele>374</ele>
        <time>2017-12-27T00:37:05Z</time>
      </trkpt>
      <trkpt lat="45.74795" lon="5.62535">
        <ele>374</ele>
        <time>2017-12-27T00:38:05Z</time>
      </trkpt>
      <trkpt lat="45.74777" lon="5.62532">
        <ele>375</ele>
        <time>2017-12-27T00:39:05Z</time>
      </trkpt>
      <trkpt lat="45.74763" lon="5.62528">
        <ele>375</ele>
        <time>2017-12-27T00:40:05Z</time>
      </trkpt>
      <trkpt lat="45.74748" lon="5.62527">
        <ele>376</ele>
        <time>2017-12-27T00:41:05Z</time>
      </trkpt>
      <trkpt lat="45.74735" lon="5.62536">
        <ele>375</ele>
        <time>2017-12-27T00:42:05Z</time>
      </trkpt>
      <trkpt lat="45.74731" lon="5.62553">
        <ele>373</ele>
        <time>2017-12-27T00:43:05Z</time>
      </trkpt>
      <trkpt lat="45.74704" lon="5.62556">
        <ele>373</ele>
        <time>2017-12-27T00:44:05Z</time>
      </trkpt>
      <trkpt lat="45.74675" lon="5.6256">
        <ele>372</ele>
        <time>2017-12-27T00:45:05Z</time>
      </trkpt>
      <trkpt lat="45.74633" lon="5.62564">
        <ele>375</ele>
        <time>2017-12-27T00:46:05Z</time>
      </trkpt>
      <trkpt lat="45.74588" lon="5.6257">
        <ele>380</ele>
        <time>2017-12-27T00:47:05Z</time>
      </trkpt>
      <trkpt lat="45.74568" lon="5.62571">
        <ele>381</ele>
        <time>2017-12-27T00:48:05Z</time>
      </trkpt>
      <trkpt lat="45.74549" lon="5.6257">
        <ele>381</ele>
        <time>2017-12-27T00:49:05Z</time>
      </trkpt>
      <trkpt lat="45.74522" lon="5.62573">
        <ele>381</ele>
        <time>2017-12-27T00:50:05Z</time>
      </trkpt>
      <trkpt lat="45.74479" lon="5.62584">
        <ele>381</ele>
        <time>2017-12-27T00:51:05Z</time>
      </trkpt>
      <trkpt lat="45.7445" lon="5.62579">
        <ele>382</ele>
        <time>2017-12-27T00:52:05Z</time>
      </trkpt>
      <trkpt lat="45.74422" lon="5.6257">
        <ele>384</ele>
        <time>2017-12-27T00:53:05Z</time>
      </trkpt>
      <trkpt lat="45.74398" lon="5.62568">
        <ele>385</ele>
        <time>2017-12-27T00:54:05Z</time>
      </trkpt>
      <trkpt lat="45.74381" lon="5.62569">
        <ele>386</ele>
        <time>2017-12-27T00:55:05Z</time>
      </trkpt>
      <trkpt lat="45.74353" lon="5.62571">
        <ele>387</ele>
        <time>2017-12-27T00:56:05Z</time>
      </trkpt>
      <trkpt lat="45.74329" lon="5.62577">
        <ele>389</ele>
        <time>2017-12-27T00:57:05Z</time>
      </trkpt>
      <trkpt lat="45.74314" lon="5.62586">
        <ele>391</ele>
        <time>2017-12-27T00:58:05Z</time>
      </trkpt>
      <trkpt lat="45.74297" lon="5.62598">
        <ele>393</ele>
        <time>2017-12-27T00:59:05Z</time>
      </trkpt>
      <trkpt lat="45.74277" lon="5.62613">
        <ele>395</ele>
        <time>2017-12-27T01:00:05Z</time>
      </trkpt>
      <trkpt lat="45.74261" lon="5.62616">
        <ele>397</ele>
        <time>2017-12-27T01:01:05Z</time>
      </trkpt>
      <trkpt lat="45.74242" lon="5.62611">
        <ele>400</ele>
        <time>2017-12-27T01:02:05Z</time>
      </trkpt>
      <trkpt lat="45.74233" lon="5.62604">
        <ele>400</ele>
        <time>2017-12-27T01:03:05Z</time>
      </trkpt>
      <trkpt lat="45.74224" lon="5.62598">
        <ele>401</ele>
        <time>2017-12-27T01:04:05Z</time>
      </trkpt>
      <trkpt lat="45.74207" lon="5.62595">
        <ele>402</ele>
        <time>2017-12-27T01:05:05Z</time>
      </trkpt>
      <trkpt lat="45.74182" lon="5.62594">
        <ele>404</ele>
        <time>2017-12-27T01:06:05Z</time>
      </trkpt>
      <trkpt lat="45.74166" lon="5.62585">
        <ele>404</ele>
        <time>2017-12-27T01:07:05Z</time>
      </trkpt>
      <trkpt lat="45.74146" lon="5.62587">
        <ele>404</ele>
        <time>2017-12-27T01:08:05Z</time>
      </trkpt>
      <trkpt lat="45.74122" lon="5.62593">
        <ele>404</ele>
        <time>2017-12-27T01:09:05Z</time>
      </trkpt>
      <trkpt lat="45.74103" lon="5.62598">
        <ele>404</ele>
        <time>2017-12-27T01:10:05Z</time>
      </trkpt>
      <trkpt lat="45.74095" lon="5.62604">
        <ele>403</ele>
        <time>2017-12-27T01:11:05Z</time>
      </trkpt>
      <trkpt lat="45.74091" lon="5.62629">
        <ele>404</ele>
        <time>2017-12-27T01:12:05Z</time>
      </trkpt>
      <trkpt lat="45.74087" lon="5.62649">
        <ele>404</ele>
        <time>2017-12-27T01:13:05Z</time>
      </trkpt>
      <trkpt lat="45.74082" lon="5.62661">
        <ele>404</ele>
        <time>2017-12-27T01:14:05Z</time>
      </trkpt>
      <trkpt lat="45.74073" lon="5.62667">
        <ele>403</ele>
        <time>2017-12-27T01:15:05Z</time>
      </trkpt>
      <trkpt lat="45.74064" lon="5.62671">
        <ele>402</ele>
        <time>2017-12-27T01:16:05Z</time>
      </trkpt>
      <trkpt lat="45.74049" lon="5.62684">
        <ele>401</ele>
        <time>2017-12-27T01:17:05Z</time>
      </trkpt>
      <trkpt lat="45.74034" lon="5.62688">
        <ele>400</ele>
        <time>2017-12-27T01:18:05Z</time>
      </trkpt>
      <trkpt lat="45.74006" lon="5.62692">
        <ele>398</ele>
        <time>2017-12-27T01:19:05Z</time>
      </trkpt>
      <trkpt lat="45.73983" lon="5.62697">
        <ele>396</ele>
        <time>2017-12-27T01:20:05Z</time>
      </trkpt>
      <trkpt lat="45.73958" lon="5.62698">
        <ele>393</ele>
        <time>2017-12-27T01:21:05Z</time>
      </trkpt>
      <trkpt lat="45.73924" lon="5.62704">
        <ele>391</ele>
        <time>2017-12-27T01:22:05Z</time>
      </trkpt>
      <trkpt lat="45.73908" lon="5.62705">
        <ele>389</ele>
        <time>2017-12-27T01:23:05Z</time>
      </trkpt>
      <trkpt lat="45.73892" lon="5.62702">
        <ele>385</ele>
        <time>2017-12-27T01:24:05Z</time>
      </trkpt>
      <trkpt lat="45.73878" lon="5.62688">
        <ele>382</ele>
        <time>2017-12-27T01:25:05Z</time>
      </trkpt>
      <trkpt lat="45.7387" lon="5.62671">
        <ele>379</ele>
        <time>2017-12-27T01:26:05Z</time>
      </trkpt>
      <trkpt lat="45.73859" lon="5.62671">
        <ele>377</ele>
        <time>2017-12-27T01:27:05Z</time>
      </trkpt>
      <trkpt lat="45.73829" lon="5.62684">
        <ele>374</ele>
        <time>2017-12-27T01:28:05Z</time>
      </trkpt>
      <trkpt lat="45.738" lon="5.62694">
        <ele>371</ele>
        <time>2017-12-27T01:29:05Z</time>
      </trkpt>
      <trkpt lat="45.73768" lon="5.62705">
        <ele>367</ele>
        <time>2017-12-27T01:30:05Z</time>
      </trkpt>
      <trkpt lat="45.73734" lon="5.6272">
        <ele>363</ele>
        <time>2017-12-27T01:31:05Z</time>
      </trkpt>
      <trkpt lat="45.73707" lon="5.62734">
        <ele>362</ele>
        <time>2017-12-27T01:32:05Z</time>
      </trkpt>
      <trkpt lat="45.73692" lon="5.62741">
        <ele>361</ele>
        <time>2017-12-27T01:33:05Z</time>
      </trkpt>
      <trkpt lat="45.73681" lon="5.62749">
        <ele>361</ele>
        <time>2017-12-27T01:34:05Z</time>
      </trkpt>
      <trkpt lat="45.73675" lon="5.6276">
        <ele>360</ele>
        <time>2017-12-27T01:35:05Z</time>
      </trkpt>
      <trkpt lat="45.73671" lon="5.62774">
        <ele>360</ele>
        <time>2017-12-27T01:36:05Z</time>
      </trkpt>
      <trkpt lat="45.73665" lon="5.62784">
        <ele>360</ele>
        <time>2017-12-27T01:37:05Z</time>
      </trkpt>
      <trkpt lat="45.73657" lon="5.62793">
        <ele>360</ele>
        <time>2017-12-27T01:38:05Z</time>
      </trkpt>
      <trkpt lat="45.73643" lon="5.62803">
        <ele>359</ele>
        <time>2017-12-27T01:39:05Z</time>
      </trkpt>
      <trkpt lat="45.73646" lon="5.62815">
        <ele>359</ele>
        <time>2017-12-27T01:40:05Z</time>
      </trkpt>
      <trkpt lat="45.73645" lon="5.62832">
        <ele>359</ele>
        <time>2017-12-27T01:41:05Z</time>
      </trkpt>
      <trkpt lat="45.73643" lon="5.62847">
        <ele>359</ele>
        <time>2017-12-27T01:42:05Z</time>
      </trkpt>
      <trkpt lat="45.73637" lon="5.62864">
        <ele>359</ele>
        <time>2017-12-27T01:43:05Z</time>
      </trkpt>
      <trkpt lat="45.73632" lon="5.62878">
        <ele>360</ele>
        <time>2017-12-27T01:44:05Z</time>
      </trkpt>
      <trkpt lat="45.7363" lon="5.62893">
        <ele>360</ele>
        <time>2017-12-27T01:45:05Z</time>
      </trkpt>
      <trkpt lat="45.7363" lon="5.62911">
        <ele>360</ele>
        <time>2017-12-27T01:46:05Z</time>
      </trkpt>
      <trkpt lat="45.7364" lon="5.62936">
        <ele>360</ele>
        <time>2017-12-27T01:47:05Z</time>
      </trkpt>
      <trkpt lat="45.73644" lon="5.62952">
        <ele>360</ele>
        <time>2017-12-27T01:48:05Z</time>
      </trkpt>
      <trkpt lat="45.73645" lon="5.62968">
        <ele>359</ele>
        <time>2017-12-27T01:49:05Z</time>
      </trkpt>
      <trkpt lat="45.73645" lon="5.62987">
        <ele>359</ele>
        <time>2017-12-27T01:50:05Z</time>
      </trkpt>
      <trkpt lat="45.73649" lon="5.63006">
        <ele>359</ele>
        <time>2017-12-27T01:51:05Z</time>
      </trkpt>
      <trkpt lat="45.73655" lon="5.63032">
        <ele>358</ele>
        <time>2017-12-27T01:52:05Z</time>
      </trkpt>
      <trkpt lat="45.73659" lon="5.63061">
        <ele>358</ele>
        <time>2017-12-27T01:53:05Z</time>
      </trkpt>
      <trkpt lat="45.73672" lon="5.63174">
        <ele>359</ele>
        <time>2017-12-27T01:54:05Z</time>
      </trkpt>
      <trkpt lat="45.73673" lon="5.63202">
        <ele>360</ele>
        <time>2017-12-27T01:55:05Z</time>
      </trkpt>
      <trkpt lat="45.73677" lon="5.63232">
        <ele>363</ele>
        <time>2017-12-27T01:56:05Z</time>
      </trkpt>
      <trkpt lat="45.73681" lon="5.63289">
        <ele>365</ele>
        <time>2017-12-27T01:57:05Z</time>
      </trkpt>
      <trkpt lat="45.7368" lon="5.63309">
        <ele>366</ele>
        <time>2017-12-27T01:58:05Z</time>
      </trkpt>
      <trkpt lat="45.73676" lon="5.63325">
        <ele>367</ele>
        <time>2017-12-27T01:59:05Z</time>
      </trkpt>
      <trkpt lat="45.73669" lon="5.63339">
        <ele>367</ele>
        <time>2017-12-27T02:00:05Z</time>
      </trkpt>
      <trkpt lat="45.73668" lon="5.63352">
        <ele>368</ele>
        <time>2017-12-27T02:01:05Z</time>
      </trkpt>
      <trkpt lat="45.73669" lon="5.63364">
        <ele>368</ele>
        <time>2017-12-27T02:02:05Z</time>
      </trkpt>
      <trkpt lat="45.73668" lon="5.63374">
        <ele>369</ele>
        <time>2017-12-27T02:03:05Z</time>
      </trkpt>
      <trkpt lat="45.73667" lon="5.6339">
        <ele>370</ele>
        <time>2017-12-27T02:04:05Z</time>
      </trkpt>
      <trkpt lat="45.7367" lon="5.63428">
        <ele>371</ele>
        <time>2017-12-27T02:05:05Z</time>
      </trkpt>
      <trkpt lat="45.73669" lon="5.6345">
        <ele>372</ele>
        <time>2017-12-27T02:06:05Z</time>
      </trkpt>
      <trkpt lat="45.7367" lon="5.63468">
        <ele>372</ele>
        <time>2017-12-27T02:07:05Z</time>
      </trkpt>
      <trkpt lat="45.73673" lon="5.6348">
        <ele>373</ele>
        <time>2017-12-27T02:08:05Z</time>
      </trkpt>
      <trkpt lat="45.7368" lon="5.63493">
        <ele>373</ele>
        <time>2017-12-27T02:09:05Z</time>
      </trkpt>
      <trkpt lat="45.73686" lon="5.6352">
        <ele>374</ele>
        <time>2017-12-27T02:10:05Z</time>
      </trkpt>
      <trkpt lat="45.7369" lon="5.63538">
        <ele>374</ele>
        <time>2017-12-27T02:11:05Z</time>
      </trkpt>
      <trkpt lat="45.73689" lon="5.63554">
        <ele>374</ele>
        <time>2017-12-27T02:12:05Z</time>
      </trkpt>
      <trkpt lat="45.73686" lon="5.63566">
        <ele>374</ele>
        <time>2017-12-27T02:13:05Z</time>
      </trkpt>
      <trkpt lat="45.73678" lon="5.63577">
        <ele>374</ele>
        <time>2017-12-27T02:14:05Z</time>
      </trkpt>
      <trkpt lat="45.73664" lon="5.63584">
        <ele>373</ele>
        <time>2017-12-27T02:15:05Z</time>
      </trkpt>
      <trkpt lat="45.73633" lon="5.63601">
        <ele>374</ele>
        <time>2017-12-27T02:16:05Z</time>
      </trkpt>
      <trkpt lat="45.73615" lon="5.63613">
        <ele>374</ele>
        <time>2017-12-27T02:17:05Z</time>
      </trkpt>
      <trkpt lat="45.73604" lon="5.63624">
        <ele>373</ele>
        <time>2017-12-27T02:18:05Z</time>
      </trkpt>
      <trkpt lat="45.73599" lon="5.63657">
        <ele>373</ele>
        <time>2017-12-27T02:19:05Z</time>
      </trkpt>
      <trkpt lat="45.736" lon="5.63676">
        <ele>372</ele>
        <time>2017-12-27T02:20:05Z</time>
      </trkpt>
      <trkpt lat="45.73597" lon="5.63696">
        <ele>370</ele>
        <time>2017-12-27T02:21:05Z</time>
      </trkpt>
      <trkpt lat="45.73595" lon="5.63706">
        <ele>370</ele>
        <time>2017-12-27T02:22:05Z</time>
      </trkpt>
      <trkpt lat="45.7359" lon="5.63715">
        <ele>368</ele>
        <time>2017-12-27T02:23:05Z</time>
      </trkpt>
      <trkpt lat="45.73591" lon="5.63727">
        <ele>368</ele>
        <time>2017-12-27T02:24:05Z</time>
      </trkpt>
      <trkpt lat="45.73598" lon="5.63734">
        <ele>368</ele>
        <time>2017-12-27T02:25:05Z</time>
      </trkpt>
      <trkpt lat="45.73613" lon="5.63747">
        <ele>368</ele>
        <time>2017-12-27T02:26:05Z</time>
      </trkpt>
      <trkpt lat="45.73627" lon="5.63764">
        <ele>368</ele>
        <time>2017-12-27T02:27:05Z</time>
      </trkpt>
      <trkpt lat="45.73632" lon="5.63774">
        <ele>368</ele>
        <time>2017-12-27T02:28:05Z</time>
      </trkpt>
      <trkpt lat="45.73637" lon="5.63797">
        <ele>366</ele>
        <time>2017-12-27T02:29:05Z</time>
      </trkpt>
      <trkpt lat="45.73641" lon="5.6381">
        <ele>365</ele>
        <time>2017-12-27T02:30:05Z</time>
      </trkpt>
      <trkpt lat="45.73649" lon="5.63822">
        <ele>364</ele>
        <time>2017-12-27T02:31:05Z</time>
      </trkpt>
      <trkpt lat="45.73657" lon="5.63831">
        <ele>364</ele>
        <time>2017-12-27T02:32:05Z</time>
      </trkpt>
      <trkpt lat="45.73666" lon="5.63836">
        <ele>364</ele>
        <time>2017-12-27T02:33:05Z</time>
      </trkpt>
      <trkpt lat="45.73675" lon="5.63844">
        <ele>364</ele>
        <time>2017-12-27T02:34:05Z</time>
      </trkpt>
      <trkpt lat="45.73678" lon="5.6386">
        <ele>363</ele>
        <time>2017-12-27T02:35:05Z</time>
      </trkpt>
      <trkpt lat="45.73679" lon="5.63886">
        <ele>362</ele>
        <time>2017-12-27T02:36:05Z</time>
      </trkpt>
      <trkpt lat="45.73682" lon="5.63903">
        <ele>361</ele>
        <time>2017-12-27T02:37:05Z</time>
      </trkpt>
      <trkpt lat="45.73683" lon="5.6392">
        <ele>361</ele>
        <time>2017-12-27T02:38:05Z</time>
      </trkpt>
      <trkpt lat="45.73682" lon="5.63946">
        <ele>362</ele>
        <time>2017-12-27T02:39:05Z</time>
      </trkpt>
      <trkpt lat="45.73681" lon="5.6396">
        <ele>362</ele>
        <time>2017-12-27T02:40:05Z</time>
      </trkpt>
      <trkpt lat="45.7368" lon="5.6399">
        <ele>363</ele>
        <time>2017-12-27T02:41:05Z</time>
      </trkpt>
      <trkpt lat="45.73688" lon="5.64007">
        <ele>363</ele>
        <time>2017-12-27T02:42:05Z</time>
      </trkpt>
      <trkpt lat="45.73698" lon="5.64019">
        <ele>363</ele>
        <time>2017-12-27T02:43:05Z</time>
      </trkpt>
      <trkpt lat="45.73702" lon="5.64029">
        <ele>364</ele>
        <time>2017-12-27T02:44:05Z</time>
      </trkpt>
      <trkpt lat="45.7371" lon="5.64045">
        <ele>364</ele>
        <time>2017-12-27T02:45:05Z</time>
      </trkpt>
      <trkpt lat="45.73713" lon="5.64064">
        <ele>365</ele>
        <time>2017-12-27T02:46:05Z</time>
      </trkpt>
      <trkpt lat="45.73711" lon="5.64093">
        <ele>366</ele>
        <time>2017-12-27T02:47:05Z</time>
      </trkpt>
      <trkpt lat="45.73704" lon="5.64108">
        <ele>368</ele>
        <time>2017-12-27T02:48:05Z</time>
      </trkpt>
      <trkpt lat="45.73696" lon="5.64123">
        <ele>369</ele>
        <time>2017-12-27T02:49:05Z</time>
      </trkpt>
      <trkpt lat="45.73691" lon="5.64151">
        <ele>372</ele>
        <time>2017-12-27T02:50:05Z</time>
      </trkpt>
      <trkpt lat="45.73701" lon="5.64161">
        <ele>372</ele>
        <time>2017-12-27T02:51:05Z</time>
      </trkpt>
      <trkpt lat="45.73717" lon="5.64168">
        <ele>371</ele>
        <time>2017-12-27T02:52:05Z</time>
      </trkpt>
      <trkpt lat="45.73726" lon="5.64172">
        <ele>371</ele>
        <time>2017-12-27T02:53:05Z</time>
      </trkpt>
      <trkpt lat="45.73738" lon="5.64177">
        <ele>371</ele>
        <time>2017-12-27T02:54:05Z</time>
      </trkpt>
      <trkpt lat="45.73751" lon="5.6419">
        <ele>373</ele>
        <time>2017-12-27T02:55:05Z</time>
      </trkpt>
      <trkpt lat="45.73755" lon="5.64206">
        <ele>375</ele>
        <time>2017-12-27T02:56:05Z</time>
      </trkpt>
      <trkpt lat="45.73763" lon="5.64213">
        <ele>376</ele>
        <time>2017-12-27T02:57:05Z</time>
      </trkpt>
      <trkpt lat="45.73778" lon="5.64217">
        <ele>376</ele>
        <time>2017-12-27T02:58:05Z</time>
      </trkpt>
      <trkpt lat="45.73805" lon="5.6422">
        <ele>375</ele>
        <time>2017-12-27T02:59:05Z</time>
      </trkpt>
      <trkpt lat="45.73826" lon="5.64225">
        <ele>375</ele>
        <time>2017-12-27T03:00:05Z</time>
      </trkpt>
      <trkpt lat="45.73838" lon="5.6423">
        <ele>375</ele>
        <time>2017-12-27T03:01:05Z</time>
      </trkpt>
      <trkpt lat="45.73846" lon="5.64235">
        <ele>374</ele>
        <time>2017-12-27T03:02:05Z</time>
      </trkpt>
      <trkpt lat="45.73851" lon="5.64245">
        <ele>375</ele>
        <time>2017-12-27T03:03:05Z</time>
      </trkpt>
      <trkpt lat="45.73856" lon="5.64256">
        <ele>377</ele>
        <time>2017-12-27T03:04:05Z</time>
      </trkpt>
      <trkpt lat="45.73858" lon="5.64269">
        <ele>379</ele>
        <time>2017-12-27T03:05:05Z</time>
      </trkpt>
      <trkpt lat="45.73854" lon="5.64291">
        <ele>384</ele>
        <time>2017-12-27T03:06:05Z</time>
      </trkpt>
      <trkpt lat="45.73843" lon="5.64293">
        <ele>386</ele>
        <time>2017-12-27T03:07:05Z</time>
      </trkpt>
      <trkpt lat="45.7383" lon="5.64293">
        <ele>388</ele>
        <time>2017-12-27T03:08:05Z</time>
      </trkpt>
      <trkpt lat="45.73821" lon="5.64289">
        <ele>387</ele>
        <time>2017-12-27T03:09:05Z</time>
      </trkpt>
      <trkpt lat="45.73809" lon="5.64288">
        <ele>387</ele>
        <time>2017-12-27T03:10:05Z</time>
      </trkpt>
      <trkpt lat="45.73797" lon="5.64293">
        <ele>387</ele>
        <time>2017-12-27T03:11:05Z</time>
      </trkpt>
      <trkpt lat="45.73776" lon="5.64294">
        <ele>387</ele>
        <time>2017-12-27T03:12:05Z</time>
      </trkpt>
      <trkpt lat="45.7375" lon="5.643">
        <ele>387</ele>
        <time>2017-12-27T03:13:05Z</time>
      </trkpt>
      <trkpt lat="45.73715" lon="5.6431">
        <ele>388</ele>
        <time>2017-12-27T03:14:05Z</time>
      </trkpt>
      <trkpt lat="45.7371" lon="5.6433">
        <ele>389</ele>
        <time>2017-12-27T03:15:05Z</time>
      </trkpt>
      <trkpt lat="45.73704" lon="5.64341">
        <ele>389</ele>
        <time>2017-12-27T03:16:05Z</time>
      </trkpt>
      <trkpt lat="45.73699" lon="5.64353">
        <ele>388</ele>
        <time>2017-12-27T03:17:05Z</time>
      </trkpt>
      <trkpt lat="45.73696" lon="5.64367">
        <ele>386</ele>
        <time>2017-12-27T03:18:05Z</time>
      </trkpt>
      <trkpt lat="45.73699" lon="5.64375">
        <ele>386</ele>
        <time>2017-12-27T03:19:05Z</time>
      </trkpt>
      <trkpt lat="45.73708" lon="5.64387">
        <ele>386</ele>
        <time>2017-12-27T03:20:05Z</time>
      </trkpt>
      <trkpt lat="45.73717" lon="5.6439">
        <ele>387</ele>
        <time>2017-12-27T03:21:05Z</time>
      </trkpt>
      <trkpt lat="45.73724" lon="5.64403">
        <ele>387</ele>
        <time>2017-12-27T03:22:05Z</time>
      </trkpt>
      <trkpt lat="45.73733" lon="5.64404">
        <ele>389</ele>
        <time>2017-12-27T03:23:05Z</time>
      </trkpt>
      <trkpt lat="45.73738" lon="5.64413">
        <ele>389</ele>
        <time>2017-12-27T03:24:05Z</time>
      </trkpt>
      <trkpt lat="45.73744" lon="5.64408">
        <ele>390</ele>
        <time>2017-12-27T03:25:05Z</time>
      </trkpt>
      <trkpt lat="45.73744" lon="5.64394">
        <ele>390</ele>
        <time>2017-12-27T03:26:05Z</time>
      </trkpt>
      <trkpt lat="45.73754" lon="5.64391">
        <ele>391</ele>
        <time>2017-12-27T03:27:05Z</time>
      </trkpt>
      <trkpt lat="45.73759" lon="5.64387">
        <ele>391</ele>
        <time>2017-12-27T03:28:05Z</time>
      </trkpt>
      <trkpt lat="45.73765" lon="5.6439">
        <ele>392</ele>
        <time>2017-12-27T03:29:05Z</time>
      </trkpt>
      <trkpt lat="45.73776" lon="5.64393">
        <ele>392</ele>
        <time>2017-12-27T03:30:05Z</time>
      </trkpt>
      <trkpt lat="45.73786" lon="5.644">
        <ele>393</ele>
        <time>2017-12-27T03:31:05Z</time>
      </trkpt>
      <trkpt lat="45.73793" lon="5.64407">
        <ele>393</ele>
        <time>2017-12-27T03:32:05Z</time>
      </trkpt>
      <trkpt lat="45.73803" lon="5.64409">
        <ele>394</ele>
        <time>2017-12-27T03:33:05Z</time>
      </trkpt>
      <trkpt lat="45.7382" lon="5.64426">
        <ele>393</ele>
        <time>2017-12-27T03:34:05Z</time>
      </trkpt>
      <trkpt lat="45.73827" lon="5.64435">
        <ele>391</ele>
        <time>2017-12-27T03:35:05Z</time>
      </trkpt>
      <trkpt lat="45.73837" lon="5.6444">
        <ele>391</ele>
        <time>2017-12-27T03:36:05Z</time>
      </trkpt>
      <trkpt lat="45.73857" lon="5.64439">
        <ele>391</ele>
        <time>2017-12-27T03:37:05Z</time>
      </trkpt>
      <trkpt lat="45.73864" lon="5.64447">
        <ele>390</ele>
        <time>2017-12-27T03:38:05Z</time>
      </trkpt>
      <trkpt lat="45.73872" lon="5.64447">
        <ele>391</ele>
        <time>2017-12-27T03:39:05Z</time>
      </trkpt>
      <trkpt lat="45.73883" lon="5.64451">
        <ele>390</ele>
        <time>2017-12-27T03:40:05Z</time>
      </trkpt>
      <trkpt lat="45.73892" lon="5.64453">
        <ele>391</ele>
        <time>2017-12-27T03:41:05Z</time>
      </trkpt>
      <trkpt lat="45.73901" lon="5.64459">
        <ele>390</ele>
        <time>2017-12-27T03:42:05Z</time>
      </trkpt>
      <trkpt lat="45.73913" lon="5.64466">
        <ele>390</ele>
        <time>2017-12-27T03:43:05Z</time>
      </trkpt>
      <trkpt lat="45.7392" lon="5.64473">
        <ele>390</ele>
        <time>2017-12-27T03:44:05Z</time>
      </trkpt>
      <trkpt lat="45.73938" lon="5.64474">
        <ele>389</ele>
        <time>2017-12-27T03:45:05Z</time>
      </trkpt>
      <trkpt lat="45.73947" lon="5.64479">
        <ele>388</ele>
        <time>2017-12-27T03:46:05Z</time>
      </trkpt>
      <trkpt lat="45.73962" lon="5.64481">
        <ele>388</ele>
        <time>2017-12-27T03:47:05Z</time>
      </trkpt>
      <trkpt lat="45.73969" lon="5.64485">
        <ele>388</ele>
        <time>2017-12-27T03:48:05Z</time>
      </trkpt>
      <trkpt lat="45.73969" lon="5.64494">
        <ele>388</ele>
        <time>2017-12-27T03:49:05Z</time>
      </trkpt>
      <trkpt lat="45.73962" lon="5.64511">
        <ele>386</ele>
        <time>2017-12-27T03:50:05Z</time>
      </trkpt>
      <trkpt lat="45.73961" lon="5.64524">
        <ele>383</ele>
        <time>2017-12-27T03:51:05Z</time>
      </trkpt>
      <trkpt lat="45.73957" lon="5.64534">
        <ele>381</ele>
        <time>2017-12-27T03:52:05Z</time>
      </trkpt>
      <trkpt lat="45.73963" lon="5.64551">
        <ele>377</ele>
        <time>2017-12-27T03:53:05Z</time>
      </trkpt>
      <trkpt lat="45.73969" lon="5.6456">
        <ele>375</ele>
        <time>2017-12-27T03:54:05Z</time>
      </trkpt>
      <trkpt lat="45.73979" lon="5.64572">
        <ele>373</ele>
        <time>2017-12-27T03:55:05Z</time>
      </trkpt>
      <trkpt lat="45.73996" lon="5.64576">
        <ele>373</ele>
        <time>2017-12-27T03:56:05Z</time>
      </trkpt>
      <trkpt lat="45.74006" lon="5.64593">
        <ele>369</ele>
        <time>2017-12-27T03:57:05Z</time>
      </trkpt>
      <trkpt lat="45.74015" lon="5.64606">
        <ele>366</ele>
        <time>2017-12-27T03:58:05Z</time>
      </trkpt>
      <trkpt lat="45.74022" lon="5.64614">
        <ele>364</ele>
        <time>2017-12-27T03:59:05Z</time>
      </trkpt>
      <trkpt lat="45.74026" lon="5.64623">
        <ele>362</ele>
        <time>2017-12-27T04:00:05Z</time>
      </trkpt>
      <trkpt lat="45.74032" lon="5.64638">
        <ele>358</ele>
        <time>2017-12-27T04:01:05Z</time>
      </trkpt>
      <trkpt lat="45.74021" lon="5.64652">
        <ele>355</ele>
        <time>2017-12-27T04:02:05Z</time>
      </trkpt>
      <trkpt lat="45.74029" lon="5.64658">
        <ele>353</ele>
        <time>2017-12-27T04:03:05Z</time>
      </trkpt>
      <trkpt lat="45.74036" lon="5.64669">
        <ele>350</ele>
        <time>2017-12-27T04:04:05Z</time>
      </trkpt>
      <trkpt lat="45.74046" lon="5.64685">
        <ele>345</ele>
        <time>2017-12-27T04:05:05Z</time>
      </trkpt>
      <trkpt lat="45.74055" lon="5.6469">
        <ele>343</ele>
        <time>2017-12-27T04:06:05Z</time>
      </trkpt>
      <trkpt lat="45.74072" lon="5.64695">
        <ele>341</ele>
        <time>2017-12-27T04:07:05Z</time>
      </trkpt>
      <trkpt lat="45.74086" lon="5.64692">
        <ele>342</ele>
        <time>2017-12-27T04:08:05Z</time>
      </trkpt>
      <trkpt lat="45.74099" lon="5.64691">
        <ele>340</ele>
        <time>2017-12-27T04:09:05Z</time>
      </trkpt>
      <trkpt lat="45.74108" lon="5.64692">
        <ele>339</ele>
        <time>2017-12-27T04:10:05Z</time>
      </trkpt>
      <trkpt lat="45.74117" lon="5.64697">
        <ele>336</ele>
        <time>2017-12-27T04:11:05Z</time>
      </trkpt>
      <trkpt lat="45.74127" lon="5.64699">
        <ele>334</ele>
        <time>2017-12-27T04:12:05Z</time>
      </trkpt>
      <trkpt lat="45.74142" lon="5.64697">
        <ele>332</ele>
        <time>2017-12-27T04:13:05Z</time>
      </trkpt>
      <trkpt lat="45.74156" lon="5.647">
        <ele>330</ele>
        <time>2017-12-27T04:14:05Z</time>
      </trkpt>
      <trkpt lat="45.74164" lon="5.64705">
        <ele>327</ele>
        <time>2017-12-27T04:15:05Z</time>
      </trkpt>
      <trkpt lat="45.74175" lon="5.6471">
        <ele>325</ele>
        <time>2017-12-27T04:16:05Z</time>
      </trkpt>
      <trkpt lat="45.74184" lon="5.64713">
        <ele>323</ele>
        <time>2017-12-27T04:17:05Z</time>
      </trkpt>
      <trkpt lat="45.74199" lon="5.64713">
        <ele>321</ele>
        <time>2017-12-27T04:18:05Z</time>
      </trkpt>
      <trkpt lat="45.74209" lon="5.64716">
        <ele>319</ele>
        <time>2017-12-27T04:19:05Z</time>
      </trkpt>
      <trkpt lat="45.74221" lon="5.64718">
        <ele>318</ele>
        <time>2017-12-27T04:20:05Z</time>
      </trkpt>
      <trkpt lat="45.74247" lon="5.6471">
        <ele>317</ele>
        <time>2017-12-27T04:21:05Z</time>
      </trkpt>
      <trkpt lat="45.74256" lon="5.64717">
        <ele>314</ele>
        <time>2017-12-27T04:22:05Z</time>
      </trkpt>
      <trkpt lat="45.74261" lon="5.64731">
        <ele>311</ele>
        <time>2017-12-27T04:23:05Z</time>
      </trkpt>
      <trkpt lat="45.74258" lon="5.6474">
        <ele>310</ele>
        <time>2017-12-27T04:24:05Z</time>
      </trkpt>
      <trkpt lat="45.74248" lon="5.64755">
        <ele>308</ele>
        <time>2017-12-27T04:25:05Z</time>
      </trkpt>
      <trkpt lat="45.74236" lon="5.64766">
        <ele>308</ele>
        <time>2017-12-27T04:26:05Z</time>
      </trkpt>
      <trkpt lat="45.74237" lon="5.64778">
        <ele>306</ele>
        <time>2017-12-27T04:27:05Z</time>
      </trkpt>
      <trkpt lat="45.74241" lon="5.64785">
        <ele>305</ele>
        <time>2017-12-27T04:28:05Z</time>
      </trkpt>
      <trkpt lat="45.74251" lon="5.64787">
        <ele>304</ele>
        <time>2017-12-27T04:29:05Z</time>
      </trkpt>
      <trkpt lat="45.74256" lon="5.64795">
        <ele>302</ele>
        <time>2017-12-27T04:30:05Z</time>
      </trkpt>
      <trkpt lat="45.74248" lon="5.64818">
        <ele>299</ele>
        <time>2017-12-27T04:31:05Z</time>
      </trkpt>
      <trkpt lat="45.74233" lon="5.64827">
        <ele>299</ele>
        <time>2017-12-27T04:32:05Z</time>
      </trkpt>
      <trkpt lat="45.74216" lon="5.64829">
        <ele>299</ele>
        <time>2017-12-27T04:33:05Z</time>
      </trkpt>
      <trkpt lat="45.74202" lon="5.64834">
        <ele>299</ele>
        <time>2017-12-27T04:34:05Z</time>
      </trkpt>
      <trkpt lat="45.74189" lon="5.64835">
        <ele>299</ele>
        <time>2017-12-27T04:35:05Z</time>
      </trkpt>
      <trkpt lat="45.74162" lon="5.6485">
        <ele>296</ele>
        <time>2017-12-27T04:36:05Z</time>
      </trkpt>
      <trkpt lat="45.74151" lon="5.64852">
        <ele>296</ele>
        <time>2017-12-27T04:37:05Z</time>
      </trkpt>
      <trkpt lat="45.74139" lon="5.64853">
        <ele>296</ele>
        <time>2017-12-27T04:38:05Z</time>
      </trkpt>
      <trkpt lat="45.74121" lon="5.64856">
        <ele>296</ele>
        <time>2017-12-27T04:39:05Z</time>
      </trkpt>
      <trkpt lat="45.74105" lon="5.64858">
        <ele>296</ele>
        <time>2017-12-27T04:40:05Z</time>
      </trkpt>
      <trkpt lat="45.74091" lon="5.64859">
        <ele>297</ele>
        <time>2017-12-27T04:41:05Z</time>
      </trkpt>
      <trkpt lat="45.7408" lon="5.64868">
        <ele>294</ele>
        <time>2017-12-27T04:42:05Z</time>
      </trkpt>
      <trkpt lat="45.74065" lon="5.64882">
        <ele>291</ele>
        <time>2017-12-27T04:43:05Z</time>
      </trkpt>
      <trkpt lat="45.74055" lon="5.64887">
        <ele>290</ele>
        <time>2017-12-27T04:44:05Z</time>
      </trkpt>
      <trkpt lat="45.74047" lon="5.6489">
        <ele>289</ele>
        <time>2017-12-27T04:45:05Z</time>
      </trkpt>
      <trkpt lat="45.74042" lon="5.64901">
        <ele>286</ele>
        <time>2017-12-27T04:46:05Z</time>
      </trkpt>
      <trkpt lat="45.74091" lon="5.64904">
        <ele>284</ele>
        <time>2017-12-27T04:47:05Z</time>
      </trkpt>
      <trkpt lat="45.74124" lon="5.64907">
        <ele>281</ele>
        <time>2017-12-27T04:48:05Z</time>
      </trkpt>
      <trkpt lat="45.7417" lon="5.6491">
        <ele>278</ele>
        <time>2017-12-27T04:49:05Z</time>
      </trkpt>
      <trkpt lat="45.74204" lon="5.64914">
        <ele>276</ele>
        <time>2017-12-27T04:50:05Z</time>
      </trkpt>
      <trkpt lat="45.74244" lon="5.64919">
        <ele>274</ele>
        <time>2017-12-27T04:51:05Z</time>
      </trkpt>
      <trkpt lat="45.74283" lon="5.64924">
        <ele>272</ele>
        <time>2017-12-27T04:52:05Z</time>
      </trkpt>
      <trkpt lat="45.74292" lon="5.64927">
        <ele>271</ele>
        <time>2017-12-27T04:53:05Z</time>
      </trkpt>
      <trkpt lat="45.74297" lon="5.64936">
        <ele>269</ele>
        <time>2017-12-27T04:54:05Z</time>
      </trkpt>
      <trkpt lat="45.74296" lon="5.6495">
        <ele>267</ele>
        <time>2017-12-27T04:55:05Z</time>
      </trkpt>
      <trkpt lat="45.74291" lon="5.64975">
        <ele>263</ele>
        <time>2017-12-27T04:56:05Z</time>
      </trkpt>
      <trkpt lat="45.74279" lon="5.64981">
        <ele>263</ele>
        <time>2017-12-27T04:57:05Z</time>
      </trkpt>
      <trkpt lat="45.7424" lon="5.64982">
        <ele>264</ele>
        <time>2017-12-27T04:58:05Z</time>
      </trkpt>
      <trkpt lat="45.742" lon="5.64991">
        <ele>261</ele>
        <time>2017-12-27T04:59:05Z</time>
      </trkpt>
      <trkpt lat="45.74215" lon="5.65001">
        <ele>260</ele>
        <time>2017-12-27T05:00:05Z</time>
      </trkpt>
      <trkpt lat="45.74231" lon="5.65017">
        <ele>256</ele>
        <time>2017-12-27T05:01:05Z</time>
      </trkpt>
      <trkpt lat="45.74257" lon="5.65037">
        <ele>252</ele>
        <time>2017-12-27T05:02:05Z</time>
      </trkpt>
      <trkpt lat="45.74263" lon="5.6505">
        <ele>249</ele>
        <time>2017-12-27T05:03:05Z</time>
      </trkpt>
      <trkpt lat="45.74268" lon="5.65074">
        <ele>243</ele>
        <time>2017-12-27T05:04:05Z</time>
      </trkpt>
      <trkpt lat="45.74269" lon="5.65101">
        <ele>239</ele>
        <time>2017-12-27T05:05:05Z</time>
      </trkpt>
      <trkpt lat="45.74269" lon="5.65119">
        <ele>238</ele>
        <time>2017-12-27T05:06:05Z</time>
      </trkpt>
      <trkpt lat="45.7427" lon="5.65143">
        <ele>236</ele>
        <time>2017-12-27T05:07:05Z</time>
      </trkpt>
      <trkpt lat="45.74273" lon="5.65175">
        <ele>235</ele>
        <time>2017-12-27T05:08:05Z</time>
      </trkpt>
      <trkpt lat="45.7427" lon="5.65212">
        <ele>235</ele>
        <time>2017-12-27T05:09:05Z</time>
      </trkpt>
      <trkpt lat="45.74267" lon="5.65255">
        <ele>235</ele>
        <time>2017-12-27T05:10:05Z</time>
      </trkpt>
      <trkpt lat="45.74267" lon="5.653">
        <ele>234</ele>
        <time>2017-12-27T05:11:05Z</time>
      </trkpt>
      <trkpt lat="45.74266" lon="5.65352">
        <ele>234</ele>
        <time>2017-12-27T05:12:05Z</time>
      </trkpt>
      <trkpt lat="45.74264" lon="5.65405">
        <ele>233</ele>
        <time>2017-12-27T05:13:05Z</time>
      </trkpt>
      <trkpt lat="45.74261" lon="5.6547">
        <ele>232</ele>
        <time>2017-12-27T05:14:05Z</time>
      </trkpt>
      <trkpt lat="45.74282" lon="5.65482">
        <ele>232</ele>
        <time>2017-12-27T05:15:05Z</time>
      </trkpt>
    </trkseg>
  </trk>
</gpx>